Time;durP1;ratioP1;P1;durP2;ratioP2;P2;SDS_P1;SDS_P2;PMS_P1;PMS_P2;Temp;Humidity;BMP_temperature;BMP_pressure;BME280_temperature;BME280_humidity;BME280_pressure;Samples;Min_cycle;Max_cycle;Signal;HPM_P1;HPM_P2
2021/08/01 00:00:31;;;;;;;1999.90;999.90;;;17.80;99.90;;;;;;5035937;28;20175;-70
2021/08/01 00:02:57;;;;;;;1999.90;999.90;;;17.70;99.90;;;;;;5035735;28;20182;-70
2021/08/01 00:05:23;;;;;;;1999.90;999.90;;;17.60;99.90;;;;;;5035836;28;20176;-70
2021/08/01 00:07:48;;;;;;;1999.90;999.90;;;17.70;99.90;;;;;;5035575;28;20198;-71
2021/08/01 00:10:14;;;;;;;1999.90;999.90;;;17.60;99.90;;;;;;5035778;28;20169;-70
2021/08/01 00:12:42;;;;;;;1999.90;999.90;;;17.50;99.90;;;;;;5035648;28;20175;-70
2021/08/01 00:15:10;;;;;;;1999.90;999.90;;;17.50;99.90;;;;;;5035226;28;20541;-69
2021/08/01 00:17:35;;;;;;;1999.90;999.90;;;17.50;99.90;;;;;;5035463;28;20418;-70
2021/08/01 00:20:01;;;;;;;1999.90;999.90;;;17.40;99.90;;;;;;5035394;28;20422;-70
2021/08/01 00:22:26;;;;;;;1999.90;999.90;;;17.30;99.90;;;;;;5035383;28;20183;-70
2021/08/01 00:24:52;;;;;;;1999.90;999.90;;;17.30;99.90;;;;;;5034975;28;20178;-70
2021/08/01 00:27:18;;;;;;;1999.90;999.90;;;17.30;99.90;;;;;;5035203;28;20711;-70
2021/08/01 00:29:43;;;;;;;1999.90;999.90;;;17.30;99.90;;;;;;5035085;28;20212;-70
2021/08/01 00:32:09;;;;;;;1999.90;999.90;;;17.20;99.90;;;;;;5035233;28;20180;-71
2021/08/01 00:34:34;;;;;;;1999.90;999.90;;;17.20;99.90;;;;;;5034983;28;20645;-70
2021/08/01 00:37:01;;;;;;;1999.90;999.90;;;17.20;99.90;;;;;;5035041;28;20259;-70
2021/08/01 00:39:28;;;;;;;1999.90;999.90;;;17.20;99.90;;;;;;5035066;28;20195;-70
2021/08/01 00:41:54;;;;;;;1999.90;999.90;;;17.10;99.90;;;;;;5034950;28;20419;-70
2021/08/01 00:44:20;;;;;;;1999.90;999.90;;;17.10;99.90;;;;;;5034735;28;20443;-70
2021/08/01 00:46:46;;;;;;;1999.90;999.90;;;17.10;99.90;;;;;;5034899;28;20422;-71
2021/08/01 00:49:12;;;;;;;1999.90;999.90;;;17.10;99.90;;;;;;5034677;28;20212;-70
2021/08/01 00:51:38;;;;;;;1999.90;999.90;;;17.00;99.90;;;;;;5034834;28;20171;-70
2021/08/01 00:54:04;;;;;;;1999.90;999.90;;;17.00;99.90;;;;;;5034443;28;20418;-71
2021/08/01 00:56:30;;;;;;;1999.90;999.90;;;17.00;99.90;;;;;;5034816;28;20634;-70
2021/08/01 00:58:56;;;;;;;1999.90;999.90;;;17.00;99.90;;;;;;5033280;28;20464;-69
2021/08/01 01:01:51;;;;;;;1999.90;999.90;;;17.00;99.90;;;;;;5034665;28;20415;-70
2021/08/01 01:04:35;;;;;;;1999.90;999.90;;;16.90;99.90;;;;;;5034514;28;20171;-70
2021/08/01 01:07:25;;;;;;;1999.90;999.90;;;16.90;99.90;;;;;;5034459;28;20475;-69
2021/08/01 01:10:05;;;;;;;1999.90;999.90;;;17.00;99.90;;;;;;5034604;28;20839;-70
2021/08/01 01:12:46;;;;;;;1999.90;999.90;;;17.00;99.90;;;;;;5034571;28;20409;-70
2021/08/01 01:15:21;;;;;;;1999.90;999.90;;;17.00;99.90;;;;;;5034114;28;20399;-70
2021/08/01 01:17:50;;;;;;;1999.90;999.90;;;17.00;99.90;;;;;;5034430;28;20913;-70
2021/08/01 01:20:34;;;;;;;1999.90;999.90;;;16.90;99.90;;;;;;5034276;28;20497;-70
2021/08/01 01:23:15;;;;;;;1999.90;999.90;;;16.90;99.90;;;;;;5034259;28;20448;-70
2021/08/01 01:26:00;;;;;;;1999.90;999.90;;;16.80;99.90;;;;;;5033929;28;20433;-70
2021/08/01 01:28:41;;;;;;;1999.90;999.90;;;16.80;99.90;;;;;;5034041;28;21041;-70
2021/08/01 01:31:22;;;;;;;1999.90;999.90;;;16.80;99.90;;;;;;5034118;28;20401;-70
2021/08/01 01:34:10;;;;;;;1999.90;999.90;;;16.80;99.90;;;;;;5033908;28;20410;-70
2021/08/01 01:36:39;;;;;;;1999.90;999.90;;;16.90;99.90;;;;;;5034023;28;20427;-70
2021/08/01 01:39:06;;;;;;;1999.90;999.90;;;16.90;99.90;;;;;;5033881;28;20426;-71
2021/08/01 01:41:33;;;;;;;1999.90;999.90;;;16.80;99.90;;;;;;5033954;28;20409;-70
2021/08/01 01:43:59;;;;;;;1999.90;999.90;;;16.80;99.90;;;;;;5033679;28;20411;-70
2021/08/01 01:46:25;;;;;;;1999.90;999.90;;;16.90;99.90;;;;;;5033807;28;20417;-71
2021/08/01 01:48:53;;;;;;;1999.90;999.90;;;16.90;99.90;;;;;;5033530;28;20540;-70
2021/08/01 01:51:19;;;;;;;1999.90;999.90;;;16.90;99.90;;;;;;5033629;28;20425;-70
2021/08/01 01:53:46;;;;;;;1999.90;999.90;;;16.80;99.90;;;;;;5033484;28;20440;-69
2021/08/01 01:56:13;;;;;;;1999.90;999.90;;;16.80;99.90;;;;;;5033582;28;20404;-70
2021/08/01 01:58:39;;;;;;;1999.90;999.90;;;16.90;99.90;;;;;;5033559;28;20937;-70
2021/08/01 02:01:04;;;;;;;1999.90;999.90;;;16.80;99.90;;;;;;5033555;28;20438;-70
2021/08/01 02:03:30;;;;;;;1999.90;999.90;;;16.80;99.90;;;;;;5033553;28;20470;-70
2021/08/01 02:05:55;;;;;;;1999.90;999.90;;;16.80;99.90;;;;;;5033203;28;20173;-69
2021/08/01 02:08:21;;;;;;;1999.90;999.90;;;16.70;99.90;;;;;;5033216;28;20277;-70
2021/08/01 02:10:58;;;;;;;1999.90;999.90;;;16.80;99.90;;;;;;5033024;28;20191;-70
2021/08/01 02:13:33;;;;;;;1999.90;999.90;;;16.80;99.90;;;;;;5033353;28;20222;-70
2021/08/01 02:16:00;;;;;;;1999.90;999.90;;;16.70;99.90;;;;;;5033075;28;20428;-70
2021/08/01 02:18:35;;;;;;;1999.90;999.90;;;16.70;99.90;;;;;;5033205;28;20429;-70
2021/08/01 02:21:02;;;;;;;1999.90;999.90;;;16.70;99.90;;;;;;5033160;28;20418;-70
2021/08/01 02:23:41;;;;;;;1999.90;999.90;;;16.60;99.90;;;;;;5033161;28;20892;-69
2021/08/01 02:26:08;;;;;;;1999.90;999.90;;;16.60;99.90;;;;;;5032869;28;20407;-70
2021/08/01 02:28:36;;;;;;;1999.90;999.90;;;16.60;99.90;;;;;;5032914;28;20460;-70
2021/08/01 02:31:02;;;;;;;1999.90;999.90;;;16.60;99.90;;;;;;5032966;28;20414;-70
2021/08/01 02:33:28;;;;;;;1999.90;999.90;;;16.50;99.90;;;;;;5032883;28;20979;-70
2021/08/01 02:36:02;;;;;;;1999.90;999.90;;;16.50;99.90;;;;;;5032579;28;20403;-70
2021/08/01 02:38:29;;;;;;;1999.90;999.90;;;16.50;99.90;;;;;;5032734;28;20419;-70
2021/08/01 02:40:58;;;;;;;1999.90;999.90;;;16.50;99.90;;;;;;5032792;28;20410;-70
2021/08/01 02:43:27;;;;;;;1999.90;999.90;;;16.40;99.90;;;;;;5032752;28;20417;-70
2021/08/01 02:45:53;;;;;;;1999.90;999.90;;;16.40;99.90;;;;;;5032425;28;20489;-70
2021/08/01 02:48:22;;;;;;;1999.90;999.90;;;16.30;99.90;;;;;;5032364;28;20836;-70
2021/08/01 02:50:55;;;;;;;1999.90;999.90;;;16.30;99.90;;;;;;5032583;28;20426;-70
2021/08/01 02:53:24;;;;;;;1999.90;999.90;;;16.30;99.90;;;;;;5032639;28;20484;-70
2021/08/01 02:55:53;;;;;;;1999.90;999.90;;;16.30;99.90;;;;;;5032551;28;20408;-71
2021/08/01 02:58:19;;;;;;;1999.90;999.90;;;16.30;99.90;;;;;;5032359;28;20430;-70
2021/08/01 03:00:47;;;;;;;1999.90;999.90;;;16.30;99.90;;;;;;5032472;28;20452;-70
2021/08/01 03:03:15;;;;;;;1999.90;999.90;;;16.30;99.90;;;;;;5032314;28;20404;-70
2021/08/01 03:05:42;;;;;;;1999.90;999.90;;;16.20;99.90;;;;;;5032005;28;20428;-70
2021/08/01 03:08:12;;;;;;;1999.90;999.90;;;16.20;99.90;;;;;;5032224;28;20460;-70
2021/08/01 03:10:42;;;;;;;1999.90;999.90;;;16.20;99.90;;;;;;5032353;28;20914;-70
2021/08/01 03:13:08;;;;;;;1999.90;999.90;;;16.20;99.90;;;;;;5032291;28;20403;-69
2021/08/01 03:15:33;;;;;;;1999.90;999.90;;;16.10;99.90;;;;;;5031979;28;20415;-70
2021/08/01 03:17:59;;;;;;;1999.90;999.90;;;16.10;99.90;;;;;;5032099;28;20705;-70
2021/08/01 03:20:25;;;;;;;1999.90;999.90;;;16.10;99.90;;;;;;5032110;28;20181;-71
2021/08/01 03:22:50;;;;;;;1999.90;999.90;;;16.10;99.90;;;;;;5031403;28;20577;-70
2021/08/01 03:25:16;;;;;;;1999.90;999.90;;;16.10;99.90;;;;;;5031889;28;20167;-70
2021/08/01 03:27:41;;;;;;;1999.90;999.90;;;16.00;99.90;;;;;;5031943;28;20216;-70
2021/08/01 03:30:08;;;;;;;1999.90;999.90;;;16.00;99.90;;;;;;5032056;28;20174;-71
2021/08/01 03:32:33;;;;;;;1999.90;999.90;;;15.90;99.90;;;;;;5032018;28;20178;-70
2021/08/01 03:34:59;;;;;;;1999.90;999.90;;;15.90;99.90;;;;;;5031680;28;20406;-69
2021/08/01 03:37:26;;;;;;;1999.90;999.90;;;15.90;99.90;;;;;;5031940;28;20306;-69
2021/08/01 03:39:51;;;;;;;1999.90;999.90;;;15.80;99.90;;;;;;5031876;28;20180;-70
2021/08/01 03:42:17;;;;;;;1999.90;999.90;;;15.80;99.90;;;;;;5031865;28;20408;-70
2021/08/01 03:44:44;;;;;;;1999.90;999.90;;;15.80;99.90;;;;;;5031671;28;20200;-70
2021/08/01 03:47:10;;;;;;;1999.90;999.90;;;15.80;99.90;;;;;;5031819;28;20454;-70
2021/08/01 03:49:36;;;;;;;1999.90;999.90;;;15.80;99.90;;;;;;5046845;23;20552;-68
2021/08/01 03:52:01;;;;;;;1999.90;999.90;;;15.70;99.90;;;;;;5032493;28;20164;-68
2021/08/01 03:54:27;;;;;;;1999.90;999.90;;;15.70;99.90;;;;;;5032411;28;20304;-68
2021/08/01 03:56:53;;;;;;;1999.90;999.90;;;15.70;99.90;;;;;;5032765;28;20430;-68
2021/08/01 03:59:18;;;;;;;1999.90;999.90;;;15.60;99.90;;;;;;5032280;28;20657;-68
2021/08/01 04:01:44;;;;;;;1999.90;999.90;;;15.60;99.90;;;;;;5032392;28;20172;-68
2021/08/01 04:04:10;;;;;;;1999.90;999.90;;;15.60;99.90;;;;;;5032105;28;20666;-68
2021/08/01 04:06:36;;;;;;;1999.90;999.90;;;15.60;99.90;;;;;;5032439;28;20180;-68
2021/08/01 04:09:05;;;;;;;1999.90;999.90;;;15.50;99.90;;;;;;5032330;28;20579;-68
2021/08/01 04:11:32;;;;;;;1999.90;999.90;;;15.60;99.90;;;;;;5032504;28;20503;-69
2021/08/01 04:13:58;;;;;;;1999.90;999.90;;;15.60;99.90;;;;;;5031937;28;20409;-68
2021/08/01 04:16:23;;;;;;;1999.90;999.90;;;15.70;99.90;;;;;;5032605;28;20403;-68
2021/08/01 04:18:49;;;;;;;1999.90;999.90;;;15.70;99.90;;;;;;5031497;28;20193;-68
2021/08/01 04:21:15;;;;;;;1999.90;999.90;;;15.70;99.90;;;;;;5035499;28;20632;-68
2021/08/01 04:23:41;;;;;;;1999.90;999.90;;;15.70;99.90;;;;;;5031424;28;20176;-68
2021/08/01 04:26:08;;;;;;;1999.90;999.90;;;15.70;99.90;;;;;;5031389;28;20249;-68
2021/08/01 04:28:35;;;;;;;1999.90;999.90;;;15.70;99.90;;;;;;5032495;28;20461;-68
2021/08/01 04:31:01;;;;;;;1999.90;999.90;;;15.70;99.90;;;;;;5036168;28;20493;-68
2021/08/01 04:33:26;;;;;;;1999.90;999.90;;;15.60;99.90;;;;;;5037417;28;20844;-68
2021/08/01 04:35:52;;;;;;;1999.90;999.90;;;15.60;99.90;;;;;;5038052;28;20173;-68
2021/08/01 04:38:18;;;;;;;1999.90;999.90;;;15.50;99.90;;;;;;5035575;28;20164;-68
2021/08/01 04:40:44;;;;;;;1999.90;999.90;;;15.50;99.90;;;;;;5035275;28;20519;-68
2021/08/01 04:43:09;;;;;;;1999.90;999.90;;;15.50;99.90;;;;;;5034955;28;20419;-68
2021/08/01 04:45:35;;;;;;;1999.90;999.90;;;15.40;99.90;;;;;;5034645;28;20210;-68
2021/08/01 04:48:01;;;;;;;1999.90;999.90;;;15.40;99.90;;;;;;5036948;28;20301;-68
2021/08/01 04:50:26;;;;;;;1999.90;999.90;;;15.50;99.90;;;;;;5036316;28;20221;-68
2021/08/01 04:52:52;;;;;;;1999.90;999.90;;;15.40;99.90;;;;;;5035258;28;20161;-68
2021/08/01 04:55:21;;;;;;;1999.90;999.90;;;15.40;99.90;;;;;;5039093;28;20164;-68
2021/08/01 04:57:47;;;;;;;1999.90;999.90;;;15.50;99.90;;;;;;5034888;28;20407;-68
2021/08/01 05:00:13;;;;;;;1999.90;999.90;;;15.60;99.90;;;;;;5035123;28;20441;-68
2021/08/01 05:02:39;;;;;;;1999.90;999.90;;;15.60;99.90;;;;;;5034521;28;20268;-68
2021/08/01 05:05:05;;;;;;;1999.90;999.90;;;15.50;99.90;;;;;;5034347;28;20533;-68
2021/08/01 05:07:31;;;;;;;1999.90;999.90;;;15.50;99.90;;;;;;5034473;28;20203;-68
2021/08/01 05:09:58;;;;;;;1999.90;999.90;;;15.50;99.90;;;;;;5034753;28;20425;-67
2021/08/01 05:12:24;;;;;;;1999.90;999.90;;;15.40;99.90;;;;;;5039025;28;20410;-68
2021/08/01 05:14:50;;;;;;;1999.90;999.90;;;15.40;99.90;;;;;;5038374;28;20418;-68
2021/08/01 05:17:15;;;;;;;1999.90;999.90;;;15.40;99.90;;;;;;5019493;28;20178;-68
2021/08/01 05:19:42;;;;;;;1999.90;999.90;;;15.40;99.90;;;;;;5034454;28;20437;-68
2021/08/01 05:22:08;;;;;;;1999.90;999.90;;;15.30;99.90;;;;;;5034696;28;20458;-68
2021/08/01 05:24:41;;;;;;;1999.90;999.90;;;15.40;99.90;;;;;;5034090;28;20417;-68
2021/08/01 05:27:07;;;;;;;1999.90;999.90;;;15.40;99.90;;;;;;5034275;28;20449;-68
2021/08/01 05:29:33;;;;;;;1999.90;999.90;;;15.40;99.90;;;;;;5034435;28;20436;-68
2021/08/01 05:31:59;;;;;;;1999.90;999.90;;;15.40;99.90;;;;;;5034495;28;20401;-68
2021/08/01 05:34:24;;;;;;;1999.90;999.90;;;15.40;99.90;;;;;;5037671;28;20409;-68
2021/08/01 05:36:50;;;;;;;1999.90;999.90;;;15.50;99.90;;;;;;5038508;28;20172;-68
2021/08/01 05:39:16;;;;;;;1999.90;999.90;;;15.50;99.90;;;;;;5037177;28;20188;-68
2021/08/01 05:41:42;;;;;;;1999.90;999.90;;;15.60;99.90;;;;;;5034163;28;20171;-68
2021/08/01 05:44:08;;;;;;;1999.90;999.90;;;15.60;99.90;;;;;;5033564;28;20200;-68
2021/08/01 05:46:33;;;;;;;1999.90;999.90;;;15.70;99.90;;;;;;5033447;28;20403;-68
2021/08/01 05:48:59;;;;;;;1999.90;999.90;;;15.70;99.90;;;;;;5033785;28;20459;-68
2021/08/01 05:51:24;;;;;;;1999.90;999.90;;;15.80;99.90;;;;;;5033856;28;20634;-68
2021/08/01 05:53:50;;;;;;;1999.90;999.90;;;15.90;99.90;;;;;;5033750;28;20176;-68
2021/08/01 05:56:16;;;;;;;1999.90;999.90;;;15.90;99.90;;;;;;5034073;28;20164;-68
2021/08/01 05:58:42;;;;;;;1999.90;999.90;;;16.00;99.90;;;;;;5033842;28;20199;-68
2021/08/01 06:01:15;;;;;;;1999.90;999.90;;;16.10;99.90;;;;;;5034099;28;20177;-68
2021/08/01 06:03:42;;;;;;;1999.90;999.90;;;16.10;99.90;;;;;;5037883;28;20421;-68
2021/08/01 06:06:12;;;;;;;1999.90;999.90;;;16.10;99.90;;;;;;5038232;28;20414;-68
2021/08/01 06:08:39;;;;;;;1999.90;999.90;;;16.10;99.90;;;;;;5038773;28;20479;-67
2021/08/01 06:11:05;;;;;;;1999.90;999.90;;;16.10;99.90;;;;;;5034733;28;20798;-68
2021/08/01 06:13:31;;;;;;;1999.90;999.90;;;16.20;99.90;;;;;;5036009;28;20477;-68
2021/08/01 06:15:57;;;;;;;1999.90;999.90;;;16.30;99.90;;;;;;5034026;28;20496;-68
2021/08/01 06:18:23;;;;;;;1999.90;999.90;;;16.30;99.90;;;;;;5033709;28;20494;-68
2021/08/01 06:20:48;;;;;;;1999.90;999.90;;;16.30;99.90;;;;;;5033222;28;20455;-68
2021/08/01 06:23:14;;;;;;;1999.90;999.90;;;16.50;99.90;;;;;;5036401;28;20166;-68
2021/08/01 06:25:39;;;;;;;1999.90;999.90;;;16.60;99.90;;;;;;5035068;28;20182;-68
2021/08/01 06:28:05;;;;;;;1999.90;999.90;;;16.80;99.90;;;;;;5033672;28;20277;-68
2021/08/01 06:30:31;;;;;;;1999.90;999.90;;;16.90;99.90;;;;;;5036490;28;20176;-68
2021/08/01 06:32:57;;;;;;;1999.90;999.90;;;17.10;99.90;;;;;;5037111;28;20414;-67
2021/08/01 06:35:23;;;;;;;1999.90;999.90;;;17.20;99.90;;;;;;5034545;28;20437;-68
2021/08/01 06:37:48;;;;;;;1999.90;999.90;;;17.30;99.90;;;;;;5033070;28;20178;-68
2021/08/01 06:40:17;;;;;;;1999.90;999.90;;;17.40;99.90;;;;;;5033201;28;20543;-68
2021/08/01 06:42:45;;;;;;;1999.90;999.90;;;17.40;99.90;;;;;;5033094;28;20632;-68
2021/08/01 06:45:11;;;;;;;1999.90;999.90;;;17.50;99.90;;;;;;5032764;28;20416;-68
2021/08/01 06:47:36;;;;;;;1999.90;999.90;;;17.50;99.90;;;;;;5032623;28;20460;-68
2021/08/01 06:50:03;;;;;;;1999.90;999.90;;;17.50;99.90;;;;;;5032544;28;20448;-68
2021/08/01 06:52:28;;;;;;;1999.90;999.90;;;17.50;99.90;;;;;;5033006;28;20524;-68
2021/08/01 06:54:54;;;;;;;1999.90;999.90;;;17.60;99.90;;;;;;5032358;28;20506;-68
2021/08/01 06:57:19;;;;;;;1999.90;999.90;;;17.60;99.90;;;;;;5032697;28;20187;-68
2021/08/01 06:59:45;;;;;;;1999.90;999.90;;;17.70;99.90;;;;;;5033866;28;20196;-68
2021/08/01 07:02:12;;;;;;;1999.90;999.90;;;17.60;99.90;;;;;;5032810;28;20176;-68
2021/08/01 07:04:38;;;;;;;1999.90;999.90;;;17.50;99.90;;;;;;5032136;28;20187;-68
2021/08/01 07:07:04;;;;;;;1999.90;999.90;;;17.50;99.90;;;;;;5033468;28;20467;-68
2021/08/01 07:09:29;;;;;;;1999.90;999.90;;;17.40;99.90;;;;;;5036784;28;20211;-68
2021/08/01 07:11:56;;;;;;;1999.90;999.90;;;17.30;99.90;;;;;;5035572;28;20175;-69
2021/08/01 07:14:21;;;;;;;1999.90;999.90;;;17.30;99.90;;;;;;5032707;28;20201;-68
2021/08/01 07:16:47;;;;;;;1999.90;999.90;;;17.30;99.90;;;;;;5032291;28;20497;-68
2021/08/01 07:19:12;;;;;;;1999.90;999.90;;;17.30;99.90;;;;;;5032166;28;20284;-68
2021/08/01 07:21:38;;;;;;;1999.90;999.90;;;17.30;99.90;;;;;;5032191;28;20227;-69
2021/08/01 07:24:04;;;;;;;1999.90;999.90;;;17.30;99.90;;;;;;5031902;28;20176;-68
2021/08/01 07:26:29;;;;;;;1999.90;999.90;;;17.30;99.90;;;;;;5035140;28;20294;-68
2021/08/01 07:28:55;;;;;;;1999.90;999.90;;;17.30;99.90;;;;;;5037163;28;20266;-68
2021/08/01 07:31:21;;;;;;;1999.90;999.90;;;17.50;99.90;;;;;;5036363;28;20186;-68
2021/08/01 07:33:47;;;;;;;1999.90;999.90;;;17.60;99.90;;;;;;5036540;28;20696;-67
2021/08/01 07:36:12;;;;;;;1999.90;999.90;;;17.60;99.90;;;;;;5033278;28;20166;-68
2021/08/01 07:38:38;;;;;;;1999.90;999.90;;;17.60;99.90;;;;;;5035520;28;20434;-68
2021/08/01 07:41:04;;;;;;;1999.90;999.90;;;17.70;99.90;;;;;;5035304;28;20186;-68
2021/08/01 07:43:29;;;;;;;1999.90;999.90;;;17.80;99.90;;;;;;5031895;28;20264;-68
2021/08/01 07:45:55;;;;;;;1999.90;999.90;;;17.90;99.90;;;;;;5031680;28;20172;-68
2021/08/01 07:48:20;;;;;;;1999.90;999.90;;;18.00;99.90;;;;;;5031653;28;20192;-68
2021/08/01 07:50:46;;;;;;;1999.90;999.90;;;18.10;99.90;;;;;;5032343;28;20202;-67
2021/08/01 07:53:12;;;;;;;1999.90;999.90;;;18.30;99.90;;;;;;5033767;28;20176;-68
2021/08/01 07:55:37;;;;;;;1999.90;999.90;;;18.50;99.90;;;;;;5035292;28;20259;-68
2021/08/01 07:58:03;;;;;;;1999.90;999.90;;;18.50;99.90;;;;;;5033125;28;20170;-67
2021/08/01 08:00:29;;;;;;;1999.90;999.90;;;18.60;99.90;;;;;;5032361;28;20664;-68
2021/08/01 08:02:54;;;;;;;1999.90;999.90;;;18.70;99.90;;;;;;5031781;28;20698;-68
2021/08/01 08:05:20;;;;;;;1999.90;999.90;;;18.70;99.90;;;;;;5031430;28;20256;-68
2021/08/01 08:07:45;;;;;;;1999.90;999.90;;;18.60;99.90;;;;;;5032375;28;20294;-68
2021/08/01 08:10:11;;;;;;;1999.90;999.90;;;18.60;99.90;;;;;;5035846;28;20248;-68
2021/08/01 08:12:37;;;;;;;1999.90;999.90;;;18.70;99.90;;;;;;5035567;28;20177;-68
2021/08/01 08:15:06;;;;;;;1999.90;999.90;;;18.80;99.90;;;;;;5035350;28;20887;-68
2021/08/01 08:17:33;;;;;;;1999.90;999.90;;;18.90;99.90;;;;;;5035608;28;20661;-68
2021/08/01 08:19:59;;;;;;;1999.90;999.90;;;19.10;99.90;;;;;;5035477;28;20443;-68
2021/08/01 08:22:25;;;;;;;1999.90;999.90;;;19.20;99.90;;;;;;5036860;28;20467;-68
2021/08/01 08:24:51;;;;;;;1999.90;999.90;;;19.10;99.90;;;;;;5035143;28;20413;-68
2021/08/01 08:27:16;;;;;;;1999.90;999.90;;;19.10;99.90;;;;;;5035485;28;20289;-68
2021/08/01 08:29:42;;;;;;;1999.90;999.90;;;19.10;99.90;;;;;;5037897;28;20193;-68
2021/08/01 08:32:07;;;;;;;1999.90;999.90;;;18.80;99.90;;;;;;5036972;28;20195;-68
2021/08/01 08:34:33;;;;;;;1999.90;999.90;;;19.00;99.90;;;;;;5034985;28;20177;-68
2021/08/01 08:37:01;;;;;;;1999.90;999.90;;;19.00;99.90;;;;;;5035082;28;20611;-67
2021/08/01 08:39:28;;;;;;;1999.90;999.90;;;18.90;99.90;;;;;;5034960;28;20267;-67
2021/08/01 08:41:59;;;;;;;1999.90;999.90;;;18.90;99.90;;;;;;5035152;28;20783;-69
2021/08/01 08:44:26;;;;;;;1999.90;999.90;;;18.70;99.90;;;;;;5034793;28;20392;-68
2021/08/01 08:46:54;;;;;;;1999.90;999.90;;;18.80;99.90;;;;;;5034915;28;20407;-68
2021/08/01 08:49:21;;;;;;;1999.90;999.90;;;18.90;99.90;;;;;;5035891;28;20806;-68
2021/08/01 08:51:49;;;;;;;1999.90;999.90;;;19.10;99.90;;;;;;5036174;28;20418;-68
2021/08/01 08:54:17;;;;;;;1999.90;999.90;;;18.90;99.90;;;;;;5035619;28;20792;-69
2021/08/01 08:56:46;;;;;;;1999.90;999.90;;;18.70;99.90;;;;;;5037839;28;20419;-69
2021/08/01 08:59:16;;;;;;;1999.90;999.90;;;18.80;99.90;;;;;;5038211;28;20460;-68
2021/08/01 09:01:42;;;;;;;1999.90;999.90;;;18.90;99.90;;;;;;5038474;28;20414;-68
2021/08/01 09:04:09;;;;;;;1999.90;999.90;;;18.90;99.90;;;;;;5038046;28;20451;-68
2021/08/01 09:06:35;;;;;;;1999.90;999.90;;;19.00;99.90;;;;;;5038669;28;20230;-69
2021/08/01 09:09:01;;;;;;;1999.90;999.90;;;19.20;99.90;;;;;;5038051;28;20475;-68
2021/08/01 09:11:26;;;;;;;1999.90;999.90;;;19.30;99.90;;;;;;5038831;28;20405;-69
2021/08/01 09:13:54;;;;;;;1999.90;999.90;;;19.40;99.90;;;;;;5038021;28;20183;-68
2021/08/01 09:16:22;;;;;;;1999.90;999.90;;;19.30;99.90;;;;;;5038490;28;20183;-69
2021/08/01 09:18:48;;;;;;;1999.90;999.90;;;19.30;99.90;;;;;;5036596;28;20535;-68
2021/08/01 09:21:31;;;;;;;1999.90;999.90;;;19.60;99.90;;;;;;5037880;28;20409;-68
2021/08/01 09:23:57;;;;;;;1999.90;999.90;;;19.80;99.90;;;;;;5037563;28;20969;-68
2021/08/01 09:26:23;;;;;;;1999.90;999.90;;;19.90;99.90;;;;;;5037214;28;20417;-67
2021/08/01 09:29:02;;;;;;;1999.90;999.90;;;19.90;99.90;;;;;;5035218;28;20234;-69
2021/08/01 09:31:28;;;;;;;1999.90;999.90;;;19.90;99.90;;;;;;5034648;28;20174;-69
2021/08/01 09:33:54;;;;;;;1999.90;999.90;;;20.00;99.90;;;;;;5033404;28;20426;-67
2021/08/01 09:36:22;;;;;;;1999.90;999.90;;;19.90;99.90;;;;;;5033710;28;20412;-68
2021/08/01 09:38:59;;;;;;;1999.90;999.90;;;19.80;99.90;;;;;;5033522;28;20725;-69
2021/08/01 09:41:36;;;;;;;1999.90;999.90;;;19.70;99.90;;;;;;5033568;28;20419;-68
2021/08/01 09:44:04;;;;;;;1999.90;999.90;;;19.60;99.90;;;;;;5033273;28;20417;-69
2021/08/01 09:46:43;;;;;;;1999.90;999.90;;;19.70;99.90;;;;;;5033478;28;20446;-72
2021/08/01 09:49:15;;;;;;;1999.90;999.90;;;19.70;99.90;;;;;;5033946;28;20493;-68
2021/08/01 09:51:45;;;;;;;1999.90;999.90;;;19.60;99.90;;;;;;5033430;28;20430;-71
2021/08/01 09:54:12;;;;;;;1999.90;999.90;;;19.80;99.90;;;;;;5033153;28;20404;-70
2021/08/01 09:56:39;;;;;;;1999.90;999.90;;;20.00;99.90;;;;;;5030297;28;20781;-68
2021/08/01 09:59:18;;;;;;;1999.90;999.90;;;20.10;99.90;;;;;;5031916;28;20442;-70
2021/08/01 10:01:49;;;;;;;1999.90;999.90;;;20.20;99.90;;;;;;5032041;28;20411;-72
2021/08/01 10:04:23;;;;;;;1999.90;999.90;;;20.30;99.90;;;;;;5030679;28;20813;-70
2021/08/01 10:07:09;;;;;;;1999.90;999.90;;;20.50;99.90;;;;;;5031789;28;20411;-72
2021/08/01 10:09:39;;;;;;;1999.90;999.90;;;20.80;99.90;;;;;;5013999;28;20560;-72
2021/08/01 10:12:06;;;;;;;1999.90;999.90;;;21.10;99.90;;;;;;5031017;28;20392;-72
2021/08/01 10:14:33;;;;;;;1999.90;999.90;;;21.00;99.90;;;;;;5029383;28;20902;-70
2021/08/01 10:16:59;;;;;;;1999.90;999.90;;;20.70;99.90;;;;;;5029929;28;20481;-70
2021/08/01 10:19:25;;;;;;;1999.90;999.90;;;20.50;99.90;;;;;;5028452;28;20525;-70
2021/08/01 10:21:55;;;;;;;1999.90;999.90;;;20.40;99.90;;;;;;5031161;28;20189;-73
2021/08/01 10:24:26;;;;;;;1999.90;999.90;;;20.60;99.90;;;;;;5030802;28;20417;-73
2021/08/01 10:26:53;;;;;;;1999.90;999.90;;;20.80;99.90;;;;;;5022931;28;20429;-73
2021/08/01 10:29:33;;;;;;;1999.90;999.90;;;20.70;99.90;;;;;;5028753;28;20831;-74
2021/08/01 10:32:05;;;;;;;1999.90;999.90;;;20.60;99.90;;;;;;5032910;28;20511;-73
2021/08/01 10:34:47;;;;;;;1999.90;999.90;;;20.80;99.90;;;;;;5032515;28;20422;-73
2021/08/01 10:37:26;;;;;;;1999.90;999.90;;;20.80;99.90;;;;;;5032337;28;20406;-73
2021/08/01 10:39:52;;;;;;;1999.90;999.90;;;20.70;99.90;;;;;;5031643;28;20431;-73
2021/08/01 10:42:23;;;;;;;1999.90;999.90;;;20.60;99.90;;;;;;5031283;28;20411;-73
2021/08/01 10:44:49;;;;;;;1999.90;999.90;;;20.70;99.90;;;;;;5030953;28;20403;-73
2021/08/01 10:47:16;;;;;;;1999.90;999.90;;;21.20;99.90;;;;;;5031101;28;20382;-74
2021/08/01 10:49:44;;;;;;;1999.90;999.90;;;21.70;99.90;;;;;;5029876;28;20461;-73
2021/08/01 10:52:12;;;;;;;1999.90;999.90;;;22.00;99.90;;;;;;5026609;28;20434;-73
2021/08/01 10:54:58;;;;;;;1999.90;999.90;;;22.10;99.90;;;;;;5030674;28;20440;-73
2021/08/01 10:57:24;;;;;;;1999.90;999.90;;;22.10;99.90;;;;;;5030750;28;20429;-73
2021/08/01 10:59:50;;;;;;;1999.90;999.90;;;22.00;99.90;;;;;;5029731;28;20462;-73
2021/08/01 11:02:20;;;;;;;1999.90;999.90;;;21.90;99.90;;;;;;5031098;28;20477;-73
2021/08/01 11:04:47;;;;;;;1999.90;999.90;;;22.00;99.90;;;;;;5030019;28;20683;-73
2021/08/01 11:07:28;;;;;;;1999.90;999.90;;;22.20;99.90;;;;;;5030846;28;20424;-73
2021/08/01 11:10:13;;;;;;;1999.90;999.90;;;21.80;99.90;;;;;;5022534;28;20494;-73
2021/08/01 11:12:41;;;;;;;1999.90;999.90;;;21.90;99.90;;;;;;5030678;28;20440;-73
2021/08/01 11:15:13;;;;;;;1999.90;999.90;;;21.90;99.90;;;;;;5030565;28;20407;-73
2021/08/01 11:17:42;;;;;;;1999.90;999.90;;;21.80;99.90;;;;;;5030417;28;20402;-73
2021/08/01 11:20:18;;;;;;;1999.90;999.90;;;22.00;99.90;;;;;;5028274;28;20417;-73
2021/08/01 11:22:44;;;;;;;1999.90;999.90;;;22.40;99.90;;;;;;5030282;28;20413;-73
2021/08/01 11:25:23;;;;;;;1999.90;999.90;;;22.70;99.90;;;;;;5030324;28;20447;-73
2021/08/01 11:28:10;;;;;;;1999.90;999.90;;;23.10;99.90;;;;;;5018796;28;20206;-73
2021/08/01 11:30:53;;;;;;;1999.90;999.90;;;23.40;99.90;;;;;;5023163;28;20422;-73
2021/08/01 11:33:35;;;;;;;1999.90;999.90;;;22.90;99.90;;;;;;5026651;28;20416;-73
2021/08/01 11:36:28;;;;;;;1999.90;999.90;;;22.30;99.90;;;;;;5023461;28;20408;-73
2021/08/01 11:38:54;;;;;;;1999.90;999.90;;;22.20;99.90;;;;;;5024126;28;20441;-73
2021/08/01 11:41:26;;;;;;;1999.90;999.90;;;22.30;99.90;;;;;;5030741;28;20478;-73
2021/08/01 11:43:58;;;;;;;1999.90;999.90;;;22.20;99.90;;;;;;5029380;28;20210;-73
2021/08/01 11:46:24;;;;;;;1999.90;999.90;;;22.10;99.90;;;;;;5030374;28;20844;-73
2021/08/01 11:49:01;;;;;;;1999.90;999.90;;;22.00;99.90;;;;;;5028694;28;20467;-73
2021/08/01 11:51:27;;;;;;;1999.90;999.90;;;21.80;99.90;;;;;;5028070;28;20416;-73
2021/08/01 11:53:54;;;;;;;1999.90;999.90;;;22.10;99.90;;;;;;5029985;28;20461;-73
2021/08/01 11:56:20;;;;;;;1999.90;999.90;;;22.50;99.90;;;;;;5029950;28;20409;-73
2021/08/01 11:58:53;;;;;;;1999.90;999.90;;;22.90;99.90;;;;;;5028461;28;20428;-73
2021/08/01 12:01:22;;;;;;;1999.90;999.90;;;23.20;99.90;;;;;;5026729;28;20919;-73
2021/08/01 12:03:51;;;;;;;1999.90;999.90;;;23.30;99.90;;;;;;5029292;28;20418;-73